createdAt,value
2019-03-01T00:01:53.698Z,4.07
2019-03-01T00:04:56.788Z,4.93
2019-03-01T00:08:19.682Z,4.07
2019-03-01T00:11:28.422Z,4.57
2019-03-01T00:14:32.562Z,4.93
2019-03-01T00:17:55.609Z,5.93
2019-03-01T00:20:59.721Z,5.93
2019-03-01T00:24:03.259Z,4.60
2019-03-01T00:27:13.458Z,4.80
2019-03-01T00:30:25.981Z,5.60
2019-03-01T00:33:26.143Z,4.77
2019-03-01T00:36:38.606Z,6.20
2019-03-01T00:39:25.930Z,6.80
2019-03-01T00:42:25.288Z,5.47
2019-03-01T00:44:55.038Z,6.40
2019-03-01T00:47:24.733Z,6.87
2019-03-01T00:49:54.521Z,6.43
2019-03-01T00:52:24.183Z,6.23
2019-03-01T00:54:53.825Z,7.70
2019-03-01T00:57:23.524Z,7.10
2019-03-01T00:59:53.181Z,6.07
2019-03-01T01:02:23.005Z,5.63
2019-03-01T01:04:52.729Z,5.43
2019-03-01T01:10:50.763Z,8.47
2019-03-01T01:13:20.718Z,6.10
2019-03-01T01:15:50.718Z,7.23
2019-03-01T01:18:20.908Z,6.77
2019-03-01T01:20:50.860Z,5.67
2019-03-01T01:23:20.868Z,3.73
2019-03-01T01:25:50.862Z,8.77
2019-03-01T01:28:20.772Z,5.60
2019-03-01T01:30:50.774Z,7.07
2019-03-01T01:33:20.728Z,7.37
2019-03-01T01:35:50.758Z,6.27
2019-03-01T01:38:20.693Z,8.10
2019-03-01T01:40:50.658Z,4.43
2019-03-01T01:43:20.568Z,7.40
2019-03-01T01:45:51.781Z,8.13
2019-03-01T01:48:21.858Z,6.17
2019-03-01T01:50:51.823Z,3.63
2019-03-01T01:53:21.798Z,4.97
2019-03-01T01:55:51.743Z,3.57
2019-03-01T02:01:48.199Z,5.77
2019-03-01T02:04:20.473Z,4.07
2019-03-01T02:06:49.987Z,3.13
2019-03-01T02:09:23.633Z,6.23
2019-03-01T02:11:53.405Z,5.73
2019-03-01T02:14:23.866Z,3.17
2019-03-01T02:16:53.494Z,2.80
2019-03-01T02:19:23.103Z,2.73
2019-03-01T02:21:52.741Z,3.53
2019-03-01T02:24:22.299Z,3.50
2019-03-01T02:27:17.058Z,4.93
2019-03-01T02:29:46.641Z,7.30
2019-03-01T02:32:16.246Z,4.90
2019-03-01T02:34:45.798Z,3.80
2019-03-01T02:37:15.402Z,3.67
2019-03-01T02:39:44.991Z,6.53
2019-03-01T02:42:14.556Z,5.03
2019-03-01T02:44:44.159Z,3.90
2019-03-01T02:47:13.710Z,5.93
2019-03-01T02:49:43.328Z,4.93
2019-03-01T02:52:13.034Z,5.53
2019-03-01T02:54:42.611Z,7.83
2019-03-01T02:57:12.164Z,4.10
2019-03-01T02:59:41.772Z,4.70
2019-03-01T03:02:11.324Z,5.73
2019-03-01T03:04:40.990Z,5.53
2019-03-01T03:07:15.363Z,4.33
2019-03-01T03:09:44.932Z,4.70
2019-03-01T03:12:14.517Z,3.77
2019-03-01T03:14:44.140Z,6.47
2019-03-01T03:17:13.685Z,4.37
2019-03-01T03:19:43.275Z,4.80
2019-03-01T03:22:12.792Z,5.37
2019-03-01T03:24:42.483Z,4.50
2019-03-01T03:27:12.218Z,7.03
2019-03-01T03:29:41.819Z,8.67
2019-03-01T03:32:11.384Z,6.40
2019-03-01T03:34:41.003Z,6.43
2019-03-01T03:37:10.657Z,6.27
2019-03-01T03:39:40.244Z,5.50
2019-03-01T03:42:09.954Z,4.23
2019-03-01T03:44:39.516Z,5.20
2019-03-01T03:47:09.148Z,5.90
2019-03-01T03:49:38.708Z,3.50
2019-03-01T03:52:08.302Z,3.57
2019-03-01T03:54:38.010Z,6.97
2019-03-01T03:57:07.593Z,6.37
2019-03-01T03:59:37.203Z,4.00
2019-03-01T04:02:09.394Z,3.07
2019-03-01T04:04:38.987Z,3.90
2019-03-01T04:07:08.559Z,7.07
2019-03-01T04:09:38.141Z,4.40
2019-03-01T04:12:07.717Z,4.47
2019-03-01T04:14:37.462Z,7.63
2019-03-01T04:17:07.011Z,4.87
2019-03-01T04:19:36.624Z,7.70
2019-03-01T04:22:06.165Z,3.13
2019-03-01T04:24:35.781Z,3.30
2019-03-01T04:27:05.374Z,5.93
2019-03-01T04:29:35.028Z,6.87
2019-03-01T04:32:04.658Z,4.57
2019-03-01T04:34:34.257Z,4.90
2019-03-01T04:37:03.886Z,2.53
2019-03-01T04:39:33.499Z,5.90
2019-03-01T04:42:03.088Z,4.97
2019-03-01T04:44:32.780Z,3.87
2019-03-01T04:47:02.409Z,4.40
2019-03-01T04:49:34.958Z,5.83
2019-03-01T04:52:27.793Z,5.33
2019-03-01T04:54:57.493Z,3.83
2019-03-01T04:57:27.103Z,5.10
2019-03-01T04:59:56.700Z,5.87
2019-03-01T05:02:26.283Z,3.40
2019-03-01T05:04:55.828Z,3.97
2019-03-01T05:07:25.466Z,5.20
2019-03-01T05:09:55.648Z,5.83
2019-03-01T05:12:25.254Z,2.73
2019-03-01T05:14:54.854Z,4.03
2019-03-01T05:17:24.454Z,3.40
2019-03-01T05:19:54.009Z,2.30
2019-03-01T05:22:23.636Z,2.63
2019-03-01T05:24:53.204Z,2.13
2019-03-01T05:27:22.780Z,2.03
2019-03-01T05:29:52.508Z,1.13
2019-03-01T05:32:22.261Z,1.23
2019-03-01T05:34:51.855Z,0.90
2019-03-01T05:40:42.834Z,2.63
2019-03-01T05:43:12.343Z,3.03
2019-03-01T05:45:41.790Z,1.03
2019-03-01T05:48:11.334Z,1.37
2019-03-01T05:50:40.869Z,1.23
2019-03-01T05:53:10.480Z,1.93
2019-03-01T05:55:40.093Z,2.53
2019-03-01T05:58:38.887Z,1.57
2019-03-01T06:01:24.580Z,2.37
2019-03-01T06:04:23.684Z,1.97
2019-03-01T06:07:14.824Z,1.67
2019-03-01T06:09:56.966Z,2.03
2019-03-01T06:12:55.419Z,2.27
2019-03-01T06:16:14.791Z,2.57
2019-03-01T06:19:24.060Z,1.30
2019-03-01T06:22:42.684Z,2.67
2019-03-01T06:25:43.177Z,2.50
2019-03-01T06:28:24.133Z,2.33
2019-03-01T06:31:23.584Z,6.87
2019-03-01T06:34:39.909Z,4.20
2019-03-01T06:37:58.081Z,6.00
2019-03-01T06:41:31.489Z,7.77
2019-03-01T06:44:43.730Z,7.83
2019-03-01T06:47:41.380Z,11.07
2019-03-01T06:50:21.887Z,9.63
2019-03-01T06:52:51.531Z,11.70
2019-03-01T06:55:41.434Z,11.80
2019-03-01T06:58:17.497Z,12.80
2019-03-01T07:00:50.413Z,11.97
2019-03-01T07:03:20.375Z,13.30
2019-03-01T07:05:49.999Z,17.90
2019-03-01T07:08:19.633Z,14.87
2019-03-01T07:10:49.226Z,16.77
2019-03-01T07:13:18.888Z,14.53
2019-03-01T07:15:48.526Z,15.73
2019-03-01T07:18:18.103Z,17.37
2019-03-01T07:20:47.795Z,20.33
2019-03-01T07:23:17.379Z,22.00
2019-03-01T07:25:46.927Z,20.80
2019-03-01T07:28:16.620Z,20.70
2019-03-01T07:30:46.415Z,22.77
2019-03-01T07:33:16.042Z,22.10
2019-03-01T07:35:46.309Z,22.33
2019-03-01T07:38:16.103Z,21.07
2019-03-01T07:40:45.704Z,23.00
2019-03-01T07:43:15.197Z,26.67
2019-03-01T07:45:54.258Z,25.23
2019-03-01T07:48:29.702Z,23.67
2019-03-01T07:50:59.358Z,28.70
2019-03-01T07:53:29.052Z,26.47
2019-03-01T07:56:00.729Z,34.40
2019-03-01T07:58:30.139Z,33.00
2019-03-01T08:00:59.885Z,36.20
2019-03-01T08:03:29.573Z,40.27
2019-03-01T08:06:13.644Z,40.90
2019-03-01T08:08:42.292Z,45.97
2019-03-01T08:11:11.942Z,44.37
2019-03-01T08:13:42.866Z,40.20
2019-03-01T08:16:12.569Z,38.90
2019-03-01T08:18:45.361Z,39.03
2019-03-01T08:21:15.226Z,45.67
2019-03-01T08:23:57.015Z,40.87
2019-03-01T08:26:26.789Z,41.23
2019-03-01T08:29:05.750Z,45.73
2019-03-01T08:31:35.367Z,44.83
2019-03-01T08:34:04.936Z,53.20
2019-03-01T08:36:34.678Z,47.83
2019-03-01T08:39:05.859Z,54.73
2019-03-01T08:45:05.524Z,60.13
2019-03-01T08:47:35.223Z,64.90
2019-03-01T08:50:05.666Z,66.13
2019-03-01T08:52:40.383Z,68.50
2019-03-01T08:55:17.529Z,72.10
2019-03-01T08:57:50.280Z,70.17
2019-03-01T09:00:26.361Z,74.20
2019-03-01T09:02:55.274Z,75.03
2019-03-01T09:05:24.986Z,79.27
2019-03-01T09:07:54.670Z,80.97
2019-03-01T09:10:24.398Z,78.73
2019-03-01T09:12:54.235Z,79.83
2019-03-01T09:15:23.998Z,79.10
2019-03-01T09:17:53.752Z,79.77
2019-03-01T09:20:23.552Z,76.07
2019-03-01T09:23:19.635Z,78.83
2019-03-01T09:25:41.380Z,76.80
2019-03-01T09:28:15.851Z,83.37
2019-03-01T09:30:45.734Z,83.07
2019-03-01T09:33:17.213Z,84.33
2019-03-01T09:36:14.421Z,80.87
2019-03-01T09:38:43.742Z,84.97
2019-03-01T09:41:13.749Z,80.27
2019-03-01T09:43:43.555Z,87.00
2019-03-01T09:46:13.231Z,84.43
2019-03-01T09:48:45.520Z,81.63
2019-03-01T09:51:15.775Z,87.30
2019-03-01T09:53:45.718Z,79.67
2019-03-01T09:56:15.348Z,85.57
2019-03-01T09:58:45.001Z,79.63
2019-03-01T10:01:18.478Z,84.30
2019-03-01T10:03:48.814Z,83.50
2019-03-01T10:06:19.180Z,77.97
2019-03-01T10:08:48.867Z,82.10
2019-03-01T10:11:18.625Z,82.20
2019-03-01T10:13:48.278Z,85.23
2019-03-01T10:16:17.918Z,89.83
2019-03-01T10:18:47.555Z,91.70
2019-03-01T10:21:17.178Z,101.90
2019-03-01T10:23:46.774Z,100.13
2019-03-01T10:26:19.362Z,107.50
2019-03-01T10:28:49.031Z,94.70
2019-03-01T10:31:18.690Z,108.10
2019-03-01T10:33:48.390Z,99.20
2019-03-01T10:36:17.953Z,109.67
2019-03-01T10:38:47.616Z,117.07
2019-03-01T10:41:17.253Z,104.80
2019-03-01T10:43:49.276Z,98.10
2019-03-01T10:46:24.302Z,85.80
2019-03-01T10:48:53.885Z,89.17
2019-03-01T10:51:25.605Z,79.93
2019-03-01T10:53:55.401Z,84.77
2019-03-01T10:56:27.000Z,77.73
2019-03-01T10:58:58.387Z,71.90
2019-03-01T11:01:27.810Z,73.03
2019-03-01T11:03:58.315Z,70.70
2019-03-01T11:06:28.638Z,73.27
2019-03-01T11:09:00.894Z,73.00
2019-03-01T11:11:30.518Z,80.03
2019-03-01T11:14:00.186Z,76.03
2019-03-01T11:16:29.853Z,64.57
2019-03-01T11:18:59.472Z,67.50
2019-03-01T11:21:28.998Z,67.17
2019-03-01T11:23:58.650Z,62.13
2019-03-01T11:26:28.349Z,58.83
2019-03-01T11:28:57.967Z,69.87
2019-03-01T11:31:27.543Z,64.47
2019-03-01T11:33:57.252Z,59.30
2019-03-01T11:36:26.928Z,65.53
2019-03-01T11:38:56.949Z,67.10
2019-03-01T11:41:26.631Z,66.70
2019-03-01T11:43:56.332Z,71.07
2019-03-01T11:46:25.947Z,68.13
2019-03-01T11:48:55.607Z,69.30
2019-03-01T11:51:25.275Z,63.83
2019-03-01T11:53:55.022Z,64.07
2019-03-01T11:56:24.707Z,62.37
2019-03-01T11:58:54.298Z,73.40
2019-03-01T12:01:23.905Z,65.73
2019-03-01T12:03:53.582Z,62.77
2019-03-01T12:06:23.166Z,63.97
2019-03-01T12:08:52.768Z,57.03
2019-03-01T12:11:22.383Z,63.47
2019-03-01T12:13:52.086Z,59.77
2019-03-01T12:16:21.685Z,55.43
2019-03-01T12:18:51.266Z,48.03
2019-03-01T12:21:20.978Z,53.23
2019-03-01T12:23:50.678Z,52.37
2019-03-01T12:26:21.174Z,53.73
2019-03-01T12:28:50.837Z,49.47
2019-03-01T12:31:20.530Z,51.63
2019-03-01T12:33:50.126Z,49.87
2019-03-01T12:36:19.742Z,53.43
2019-03-01T12:38:49.460Z,50.13
2019-03-01T12:41:19.111Z,54.23
2019-03-01T12:43:48.754Z,48.77
2019-03-01T12:46:18.501Z,58.23
2019-03-01T12:48:48.203Z,53.47
2019-03-01T12:51:17.883Z,50.50
2019-03-01T12:53:47.560Z,57.07
2019-03-01T12:56:17.181Z,51.70
2019-03-01T12:58:46.770Z,53.03
2019-03-01T13:01:16.507Z,52.90
2019-03-01T13:03:46.120Z,52.53
2019-03-01T13:06:15.795Z,49.60
2019-03-01T13:08:47.780Z,52.43
2019-03-01T13:11:17.181Z,53.07
2019-03-01T13:13:46.926Z,50.50
2019-03-01T13:16:16.530Z,55.33
2019-03-01T13:18:47.483Z,58.13
2019-03-01T13:21:17.847Z,56.03
2019-03-01T13:23:47.459Z,56.70
2019-03-01T13:26:17.116Z,60.83
2019-03-01T13:28:47.051Z,54.93
2019-03-01T13:31:17.503Z,57.47
2019-03-01T13:33:47.174Z,61.70
2019-03-01T13:36:16.970Z,61.83
2019-03-01T13:38:48.785Z,61.33
2019-03-01T13:41:18.616Z,60.97
2019-03-01T13:43:48.314Z,56.10
2019-03-01T13:46:18.133Z,64.40
2019-03-01T13:48:50.951Z,66.30
2019-03-01T13:51:19.245Z,68.50
2019-03-01T13:53:49.333Z,65.27
2019-03-01T13:56:19.067Z,71.60
2019-03-01T13:58:48.766Z,60.67
2019-03-01T14:01:18.540Z,66.90
2019-03-01T14:03:48.251Z,71.87
2019-03-01T14:06:18.053Z,67.17
2019-03-01T14:08:47.935Z,55.53
2019-03-01T14:11:20.853Z,63.80
2019-03-01T14:13:51.844Z,64.33
2019-03-01T14:16:21.849Z,65.53
2019-03-01T14:18:51.510Z,57.17
2019-03-01T14:21:21.227Z,61.67
2019-03-01T14:23:51.816Z,59.97
2019-03-01T14:26:21.659Z,50.30
2019-03-01T14:28:51.382Z,48.80
2019-03-01T14:31:21.046Z,45.03
2019-03-01T14:33:51.700Z,45.53
2019-03-01T14:36:21.430Z,51.13
2019-03-01T14:38:51.464Z,44.63
2019-03-01T14:41:21.147Z,48.33
2019-03-01T14:43:50.907Z,41.33
2019-03-01T14:46:21.892Z,40.23
2019-03-01T14:48:51.930Z,45.30
2019-03-01T14:51:21.493Z,38.93
2019-03-01T14:53:51.229Z,42.70
2019-03-01T14:56:34.664Z,31.97
2019-03-01T14:59:13.310Z,39.27
2019-03-01T15:02:16.594Z,35.90
2019-03-01T15:04:46.392Z,35.10
2019-03-01T15:07:16.332Z,35.73
2019-03-01T15:09:46.095Z,33.83
2019-03-01T15:12:19.814Z,30.07
2019-03-01T15:14:49.833Z,27.27
2019-03-01T15:17:21.652Z,28.00
2019-03-01T15:19:50.516Z,26.57
2019-03-01T15:22:20.271Z,32.30
2019-03-01T15:24:50.202Z,28.37
2019-03-01T15:27:20.127Z,30.50
2019-03-01T15:29:50.051Z,33.83
2019-03-01T15:32:19.916Z,41.13
2019-03-01T15:34:49.814Z,43.57
2019-03-01T15:37:19.690Z,50.40
2019-03-01T15:39:55.224Z,45.87
2019-03-01T15:42:35.970Z,46.60
2019-03-01T15:45:08.874Z,58.07
2019-03-01T15:47:38.854Z,55.13
2019-03-01T15:50:16.882Z,64.47
2019-03-01T15:52:49.786Z,59.63
2019-03-01T15:55:18.451Z,64.03
2019-03-01T15:57:53.011Z,61.73
2019-03-01T16:00:25.588Z,59.87
2019-03-01T16:02:56.285Z,66.57
2019-03-01T16:05:26.201Z,56.30
2019-03-01T16:07:57.277Z,61.30
2019-03-01T16:10:27.223Z,71.07
2019-03-01T16:13:04.781Z,79.23
2019-03-01T16:15:38.944Z,63.50
2019-03-01T16:18:08.089Z,63.00
2019-03-01T16:20:44.879Z,63.00
2019-03-01T16:23:14.814Z,76.03
2019-03-01T16:25:49.417Z,68.40
2019-03-01T16:28:27.542Z,67.17
2019-03-01T16:31:01.640Z,53.80
2019-03-01T16:33:31.516Z,53.83
2019-03-01T16:36:02.576Z,51.10
2019-03-01T16:38:40.896Z,50.63
2019-03-01T16:41:08.541Z,49.80
2019-03-01T16:43:38.435Z,45.10
2019-03-01T16:46:08.367Z,45.73
2019-03-01T16:48:42.171Z,44.73
2019-03-01T16:54:03.744Z,44.90
2019-03-01T16:56:34.601Z,36.57
2019-03-01T16:59:07.327Z,43.07
2019-03-01T17:01:38.330Z,35.83
2019-03-01T17:04:17.219Z,41.97
2019-03-01T17:06:49.373Z,43.00
2019-03-01T17:09:20.799Z,33.67
2019-03-01T17:11:51.261Z,34.57
2019-03-01T17:14:27.547Z,43.53
2019-03-01T17:16:59.670Z,37.37
2019-03-01T17:19:30.109Z,36.73
2019-03-01T17:22:12.615Z,38.07
2019-03-01T17:24:43.212Z,40.40
2019-03-01T17:27:13.623Z,39.67
2019-03-01T17:29:45.829Z,38.00
2019-03-01T17:32:16.250Z,42.50
2019-03-01T17:34:46.748Z,36.67
2019-03-01T17:37:17.278Z,35.33
2019-03-01T17:39:53.184Z,40.53
2019-03-01T17:42:24.904Z,37.43
2019-03-01T17:44:55.142Z,38.77
2019-03-01T17:47:25.595Z,40.37
2019-03-01T17:49:55.995Z,40.20
2019-03-01T17:52:26.429Z,37.47
2019-03-01T17:54:57.574Z,35.10
2019-03-01T17:57:32.789Z,38.43
2019-03-01T18:00:01.342Z,39.43
2019-03-01T18:02:31.455Z,40.77
2019-03-01T18:05:02.009Z,35.63
2019-03-01T18:07:38.288Z,48.47
2019-03-01T18:10:09.634Z,40.20
2019-03-01T18:12:40.025Z,35.33
2019-03-01T18:15:12.416Z,38.03
2019-03-01T18:17:43.504Z,40.00
2019-03-01T18:20:14.112Z,36.70
2019-03-01T18:22:45.634Z,38.73
2019-03-01T18:25:16.173Z,36.80
2019-03-01T18:27:49.664Z,32.27
2019-03-01T18:30:21.026Z,41.57
2019-03-01T18:32:51.548Z,39.53
2019-03-01T18:35:21.944Z,40.63
2019-03-01T18:37:54.898Z,38.47
2019-03-01T18:40:24.472Z,38.07
2019-03-01T18:42:54.935Z,34.37
2019-03-01T18:45:26.169Z,36.10
2019-03-01T18:47:56.532Z,32.93
2019-03-01T18:50:31.441Z,33.13
2019-03-01T18:53:00.448Z,30.83
2019-03-01T18:55:31.232Z,34.83
2019-03-01T18:58:01.852Z,30.90
2019-03-01T19:00:35.852Z,33.20
2019-03-01T19:03:07.469Z,33.47
2019-03-01T19:05:40.249Z,32.63
2019-03-01T19:08:10.085Z,32.30
2019-03-01T19:10:40.839Z,32.73
2019-03-01T19:13:24.533Z,36.33
2019-03-01T19:15:55.532Z,41.23
2019-03-01T19:18:26.156Z,41.20
2019-03-01T19:20:56.911Z,38.33
2019-03-01T19:23:29.375Z,43.73
2019-03-01T19:26:01.735Z,45.47
2019-03-01T19:28:31.206Z,45.47
2019-03-01T19:31:01.912Z,46.60
2019-03-01T19:33:34.677Z,49.83
2019-03-01T19:36:05.045Z,47.70
2019-03-01T19:38:35.465Z,49.37
2019-03-01T19:41:05.840Z,47.10
2019-03-01T19:43:36.136Z,44.17
2019-03-01T19:46:07.257Z,46.93
2019-03-01T19:48:39.333Z,45.87
2019-03-01T19:51:09.824Z,41.93
2019-03-01T19:53:40.576Z,49.83
2019-03-01T19:56:11.100Z,47.60
2019-03-01T19:58:44.083Z,49.90
2019-03-01T20:01:14.662Z,49.27
2019-03-01T20:03:46.303Z,48.17
2019-03-01T20:06:16.958Z,46.83
2019-03-01T20:08:47.741Z,50.00
2019-03-01T20:11:18.220Z,53.57
2019-03-01T20:13:50.512Z,51.30
2019-03-01T20:16:22.746Z,50.80
2019-03-01T20:18:53.411Z,54.97
2019-03-01T20:21:23.946Z,45.00
2019-03-01T20:23:54.541Z,45.80
2019-03-01T20:26:26.816Z,44.90
2019-03-01T20:28:57.053Z,47.87
2019-03-01T20:31:27.971Z,44.13
2019-03-01T20:33:58.558Z,42.07
2019-03-01T20:36:30.282Z,39.03
2019-03-01T20:39:01.085Z,43.23
2019-03-01T20:41:31.426Z,43.10
2019-03-01T20:44:01.781Z,34.87
2019-03-01T20:46:32.345Z,38.53
2019-03-01T20:49:03.826Z,35.23
2019-03-01T20:51:35.091Z,38.63
2019-03-01T20:54:05.500Z,34.77
2019-03-01T20:56:36.081Z,35.80
2019-03-01T20:59:06.377Z,36.40
2019-03-01T21:01:40.780Z,36.33
2019-03-01T21:04:11.395Z,34.40
2019-03-01T21:06:44.639Z,30.47
2019-03-01T21:09:15.170Z,33.80
2019-03-01T21:11:45.331Z,28.13
2019-03-01T21:14:15.790Z,28.93
2019-03-01T21:16:46.173Z,30.93
2019-03-01T21:19:16.611Z,30.10
2019-03-01T21:21:47.134Z,28.10
2019-03-01T21:24:17.782Z,26.50
2019-03-01T21:26:51.210Z,27.37
2019-03-01T21:29:20.219Z,28.83
2019-03-01T21:31:50.556Z,31.37
2019-03-01T21:34:20.794Z,28.57
2019-03-01T21:36:51.259Z,26.20
2019-03-01T21:39:24.145Z,27.13
2019-03-01T21:41:53.554Z,26.97
2019-03-01T21:44:23.922Z,27.03
2019-03-01T21:46:54.520Z,26.40
2019-03-01T21:49:24.953Z,31.53
2019-03-01T21:51:56.027Z,27.17
2019-03-01T21:54:26.618Z,23.93
2019-03-01T21:56:57.058Z,21.53
2019-03-01T21:59:27.275Z,25.03
2019-03-01T22:01:57.540Z,20.73
2019-03-01T22:04:28.817Z,25.80
2019-03-01T22:07:01.941Z,21.10
2019-03-01T22:09:30.963Z,18.00
2019-03-01T22:12:01.051Z,17.07
2019-03-01T22:14:31.294Z,17.20
2019-03-01T22:17:01.431Z,21.27
2019-03-01T22:19:33.627Z,20.93
2019-03-01T22:22:03.419Z,21.60
2019-03-01T22:24:34.243Z,24.43
2019-03-01T22:27:04.259Z,22.13
2019-03-01T22:29:34.191Z,24.77
2019-03-01T22:32:07.269Z,23.77
2019-03-01T22:34:35.770Z,24.93
2019-03-01T22:37:05.676Z,22.83
2019-03-01T22:39:35.588Z,26.07
2019-03-01T22:42:05.704Z,22.67
2019-03-01T22:44:36.563Z,24.80
2019-03-01T22:47:06.713Z,25.13
2019-03-01T22:49:36.600Z,24.27
2019-03-01T22:52:06.490Z,25.13
2019-03-01T22:54:36.406Z,25.70
2019-03-01T22:57:06.396Z,26.57
2019-03-01T22:59:36.291Z,26.57
2019-03-01T23:02:09.533Z,26.07
2019-03-01T23:04:39.434Z,26.10
2019-03-01T23:07:09.412Z,27.30
2019-03-01T23:09:42.686Z,25.83
2019-03-01T23:12:11.003Z,24.53
2019-03-01T23:14:40.933Z,23.07
2019-03-01T23:17:10.849Z,26.07
2019-03-01T23:19:40.794Z,22.83
2019-03-01T23:22:11.014Z,23.20
2019-03-01T23:24:41.812Z,28.23
2019-03-01T23:27:11.692Z,26.00
2019-03-01T23:29:41.631Z,23.50
2019-03-01T23:32:11.906Z,23.37
2019-03-01T23:34:43.790Z,26.10
2019-03-01T23:37:13.755Z,25.13
2019-03-01T23:39:43.688Z,31.07
2019-03-01T23:42:17.336Z,27.27
2019-03-01T23:44:45.996Z,26.87
2019-03-01T23:50:55.925Z,28.83
2019-03-01T23:53:27.417Z,27.10
2019-03-01T23:55:57.022Z,25.57
2019-03-01T23:58:26.737Z,26.50
